Time;durP1;ratioP1;P1;durP2;ratioP2;P2;SDS_P1;SDS_P2;PMS_P1;PMS_P2;Temp;Humidity;BMP_temperature;BMP_pressure;BME280_temperature;BME280_humidity;BME280_pressure;Samples;Min_cycle;Max_cycle;Signal;HPM_P1;HPM_P2
2022/11/13 00:01:38;;;;;;;8.23;7.43;;;5.20;99.90;;;;;;5034677;28;20227;-87
2022/11/13 00:04:23;;;;;;;9.93;7.33;;;5.20;99.90;;;;;;5034496;28;20229;-87
2022/11/13 00:07:07;;;;;;;8.03;7.07;;;5.20;99.90;;;;;;5048656;28;20169;-88
2022/11/13 00:09:53;;;;;;;7.43;6.37;;;5.20;99.90;;;;;;5048638;28;20180;-87
2022/11/13 00:12:38;;;;;;;8.63;6.80;;;5.10;99.90;;;;;;5048670;28;20174;-87
2022/11/13 00:15:22;;;;;;;8.77;6.30;;;5.10;99.90;;;;;;5048706;28;20214;-88
2022/11/13 00:18:07;;;;;;;11.57;7.27;;;5.10;99.90;;;;;;5048519;28;20171;-87
2022/11/13 00:20:52;;;;;;;9.47;7.00;;;5.10;99.90;;;;;;5048616;28;20264;-87
2022/11/13 00:23:37;;;;;;;9.00;7.17;;;5.00;99.90;;;;;;5047972;28;20204;-87
2022/11/13 00:26:24;;;;;;;10.60;7.07;;;5.00;99.90;;;;;;5048469;28;20189;-87
2022/11/13 00:29:08;;;;;;;10.67;7.57;;;5.00;99.90;;;;;;5048722;28;20230;-87
2022/11/13 00:31:52;;;;;;;8.07;7.00;;;4.90;99.90;;;;;;5048237;28;20204;-87
2022/11/13 00:34:37;;;;;;;10.27;7.40;;;5.00;99.90;;;;;;5028410;28;20231;-88
2022/11/13 00:37:22;;;;;;;9.47;7.07;;;4.90;99.90;;;;;;5014532;28;20570;-87
2022/11/13 00:40:07;;;;;;;11.03;7.53;;;5.00;99.90;;;;;;5014318;28;20258;-87
2022/11/13 00:42:51;;;;;;;10.97;6.50;;;5.00;99.90;;;;;;5032957;28;20218;-88
2022/11/13 00:45:36;;;;;;;9.90;6.87;;;5.00;99.90;;;;;;5033922;28;20229;-87
2022/11/13 00:48:20;;;;;;;12.20;6.23;;;5.10;99.90;;;;;;5033972;28;20170;-88
2022/11/13 00:51:05;;;;;;;7.83;6.27;;;5.00;99.90;;;;;;5034086;28;20188;-87
2022/11/13 00:53:50;;;;;;;8.20;6.63;;;5.00;99.90;;;;;;5033078;28;20630;-88
2022/11/13 00:56:34;;;;;;;8.60;6.93;;;5.00;99.90;;;;;;5033538;28;20227;-88
2022/11/13 00:59:19;;;;;;;10.10;7.33;;;5.10;99.90;;;;;;5033802;28;20222;-87
2022/11/13 01:02:04;;;;;;;10.83;6.50;;;5.10;99.90;;;;;;5033836;28;20639;-87
2022/11/13 01:04:48;;;;;;;17.97;6.90;;;5.00;99.90;;;;;;5033414;28;20289;-87
2022/11/13 01:07:36;;;;;;;8.90;6.47;;;5.10;99.90;;;;;;5047569;28;20179;-87
2022/11/13 01:10:21;;;;;;;6.77;6.07;;;5.00;99.90;;;;;;5033391;28;20221;-87
2022/11/13 01:13:05;;;;;;;9.73;6.53;;;5.00;99.90;;;;;;5033510;28;20245;-87
2022/11/13 01:15:50;;;;;;;9.87;6.53;;;4.90;99.90;;;;;;5033472;28;20206;-87
2022/11/13 01:18:35;;;;;;;9.47;6.40;;;4.90;99.90;;;;;;5013362;28;20286;-88
2022/11/13 01:21:23;;;;;;;10.37;6.10;;;4.90;99.90;;;;;;5013428;28;20171;-87
2022/11/13 01:24:07;;;;;;;7.70;5.73;;;4.90;99.90;;;;;;5012920;28;20224;-87
2022/11/13 01:26:52;;;;;;;10.57;6.30;;;4.80;99.90;;;;;;5012333;28;20258;-88
2022/11/13 01:29:37;;;;;;;6.17;5.57;;;4.70;99.90;;;;;;5012450;28;20227;-88
2022/11/13 01:32:22;;;;;;;6.83;6.13;;;4.60;99.90;;;;;;5012467;28;20181;-87
2022/11/13 01:35:07;;;;;;;11.30;6.37;;;4.60;99.90;;;;;;5021474;28;20234;-88
2022/11/13 01:37:51;;;;;;;10.13;6.67;;;4.60;99.90;;;;;;5045933;28;20174;-88
2022/11/13 01:40:43;;;;;;;26.23;6.20;;;4.60;99.90;;;;;;5046086;28;20248;-87
2022/11/13 01:43:31;;;;;;;17.20;6.50;;;4.60;99.90;;;;;;5046171;28;20175;-87
2022/11/13 01:46:18;;;;;;;21.57;6.73;;;4.60;99.90;;;;;;5046237;28;20521;-88
2022/11/13 01:49:09;;;;;;;10.00;6.40;;;4.60;99.90;;;;;;5031778;28;20193;-87
2022/11/13 01:52:00;;;;;;;10.13;5.83;;;4.60;99.90;;;;;;5045923;28;20566;-87
2022/11/13 01:55:06;;;;;;;6.90;6.20;;;4.60;99.90;;;;;;5045830;28;20225;-87
2022/11/13 01:57:50;;;;;;;9.97;6.20;;;4.60;99.90;;;;;;5032566;28;20217;-87
2022/11/13 02:00:35;;;;;;;7.23;5.80;;;4.60;99.90;;;;;;5045772;28;20226;-87
2022/11/13 02:03:20;;;;;;;8.93;5.30;;;4.60;99.90;;;;;;5045579;28;20169;-87
2022/11/13 02:06:04;;;;;;;7.63;5.23;;;4.60;99.90;;;;;;5028096;28;20194;-87
2022/11/13 02:08:50;;;;;;;7.00;5.77;;;4.60;99.90;;;;;;5012014;28;20221;-87
2022/11/13 02:11:36;;;;;;;6.23;5.20;;;4.50;99.90;;;;;;5011743;28;20236;-88
2022/11/13 02:14:24;;;;;;;8.40;5.83;;;4.50;99.90;;;;;;5011796;28;20245;-87
2022/11/13 02:17:14;;;;;;;11.77;5.77;;;4.40;99.90;;;;;;5023193;28;20281;-88
2022/11/13 02:20:04;;;;;;;10.10;5.57;;;4.50;99.90;;;;;;5031005;28;20198;-87
2022/11/13 02:23:10;;;;;;;8.32;5.40;;;4.50;99.90;;;;;;4989577;28;1195608;-87
2022/11/13 02:25:55;;;;;;;6.60;5.13;;;4.50;99.90;;;;;;5032356;28;20170;-88
2022/11/13 02:28:39;;;;;;;7.87;5.40;;;4.50;99.90;;;;;;5031809;28;20213;-87
2022/11/13 02:31:24;;;;;;;8.47;5.83;;;4.60;99.90;;;;;;5032130;28;20256;-88
2022/11/13 02:34:08;;;;;;;6.83;6.10;;;4.50;99.90;;;;;;5031945;28;20312;-88
2022/11/13 02:36:53;;;;;;;6.37;5.37;;;4.50;99.90;;;;;;5045847;28;20178;-88
2022/11/13 02:39:38;;;;;;;12.63;5.93;;;4.50;99.90;;;;;;5044588;28;20209;-87
2022/11/13 02:42:22;;;;;;;10.63;5.83;;;4.50;99.90;;;;;;5046086;28;20172;-87
2022/11/13 02:45:08;;;;;;;6.97;5.20;;;4.50;99.90;;;;;;5045987;28;20205;-87
2022/11/13 02:47:52;;;;;;;12.10;5.97;;;4.50;99.90;;;;;;5045817;28;20165;-87
2022/11/13 02:51:18;;;;;;;9.30;5.80;;;4.40;99.90;;;;;;5045965;28;20232;-88
2022/11/13 02:54:03;;;;;;;9.27;5.57;;;4.40;99.90;;;;;;5045780;28;20251;-87
2022/11/13 02:56:47;;;;;;;9.30;6.07;;;4.30;99.90;;;;;;5045704;28;20197;-88
2022/11/13 02:59:31;;;;;;;8.60;6.13;;;4.30;99.90;;;;;;5045762;28;20239;-87
2022/11/13 03:02:15;;;;;;;11.97;6.17;;;4.30;99.90;;;;;;5045747;28;20189;-87
2022/11/13 03:05:00;;;;;;;16.03;6.87;;;4.40;99.90;;;;;;5037136;28;20692;-87
2022/11/13 03:07:44;;;;;;;9.57;6.03;;;4.40;99.90;;;;;;5011697;28;20175;-87
2022/11/13 03:10:29;;;;;;;6.73;5.40;;;4.40;99.90;;;;;;5018705;28;20184;-87
2022/11/13 03:13:13;;;;;;;12.20;6.13;;;4.40;99.90;;;;;;5031202;28;20194;-87
2022/11/13 03:16:08;;;;;;;9.27;5.43;;;4.40;99.90;;;;;;5031416;28;20170;-87
2022/11/13 03:18:55;;;;;;;9.10;6.40;;;4.40;99.90;;;;;;5035473;28;20193;-87
2022/11/13 03:21:39;;;;;;;7.27;5.97;;;4.40;99.90;;;;;;5036009;28;20165;-87
2022/11/13 03:24:23;;;;;;;14.20;5.83;;;4.50;99.90;;;;;;5035298;28;20245;-87
2022/11/13 03:27:11;;;;;;;6.37;5.77;;;4.50;99.90;;;;;;5035434;28;20247;-87
2022/11/13 03:29:56;;;;;;;15.03;5.67;;;4.50;99.90;;;;;;5035684;28;20250;-87
2022/11/13 03:32:40;;;;;;;11.97;6.30;;;4.40;99.90;;;;;;5035383;28;20190;-87
2022/11/13 03:35:25;;;;;;;6.23;5.57;;;4.40;99.90;;;;;;5035274;28;20209;-87
2022/11/13 03:38:10;;;;;;;20.87;5.93;;;4.40;99.90;;;;;;5035015;28;20177;-87
2022/11/13 03:40:54;;;;;;;20.23;6.37;;;4.40;99.90;;;;;;5034654;28;20215;-87
2022/11/13 03:43:40;;;;;;;10.27;6.00;;;4.40;99.90;;;;;;5033659;28;20182;-87
2022/11/13 03:46:24;;;;;;;10.57;6.00;;;4.40;99.90;;;;;;5034757;28;20205;-87
2022/11/13 03:49:09;;;;;;;8.33;5.67;;;4.40;99.90;;;;;;5035138;28;20190;-87
2022/11/13 03:51:57;;;;;;;6.33;5.27;;;4.30;99.90;;;;;;5036104;28;20239;-87
2022/11/13 03:54:41;;;;;;;12.53;5.63;;;4.30;99.90;;;;;;5034703;28;20702;-87
2022/11/13 03:57:26;;;;;;;5.90;5.30;;;4.30;99.90;;;;;;5034792;28;20186;-87
2022/11/13 04:00:11;;;;;;;9.70;5.17;;;4.30;99.90;;;;;;5034933;28;20805;-87
2022/11/13 04:02:56;;;;;;;13.03;5.27;;;4.30;99.90;;;;;;5034899;28;20166;-87
2022/11/13 04:05:42;;;;;;;5.40;4.90;;;4.30;99.90;;;;;;5034868;28;20264;-87
2022/11/13 04:08:26;;;;;;;7.17;5.30;;;4.30;99.90;;;;;;5047778;28;20182;-87
2022/11/13 04:11:12;;;;;;;5.90;4.67;;;4.20;99.90;;;;;;5035920;28;20175;-87
2022/11/13 04:13:56;;;;;;;6.33;4.97;;;4.20;99.90;;;;;;5034807;28;20209;-87
2022/11/13 04:16:41;;;;;;;7.47;5.43;;;4.20;99.90;;;;;;5034333;28;20258;-87
2022/11/13 04:19:25;;;;;;;8.17;5.10;;;4.20;99.90;;;;;;5034674;28;20210;-87
2022/11/13 04:22:11;;;;;;;7.30;5.20;;;4.20;99.90;;;;;;5035664;28;20166;-87
2022/11/13 04:24:58;;;;;;;6.33;4.90;;;4.20;99.90;;;;;;5034395;28;20349;-87
2022/11/13 04:27:43;;;;;;;5.63;5.13;;;4.10;99.90;;;;;;5034065;28;20224;-87
2022/11/13 04:30:28;;;;;;;6.03;5.43;;;4.20;99.90;;;;;;5034461;28;20570;-87
2022/11/13 04:33:12;;;;;;;7.87;5.13;;;4.10;99.90;;;;;;5034534;28;20197;-87
2022/11/13 04:35:57;;;;;;;15.43;5.50;;;4.10;99.90;;;;;;5034384;28;20260;-87
2022/11/13 04:38:41;;;;;;;6.53;4.80;;;4.10;99.90;;;;;;5047908;28;20186;-87
2022/11/13 04:44:28;;;;;;;7.23;5.23;;;4.10;99.90;;;;;;5035210;28;20248;-87
2022/11/13 04:47:13;;;;;;;7.23;4.97;;;4.10;99.90;;;;;;5034021;28;20265;-87
2022/11/13 04:49:57;;;;;;;14.00;5.77;;;4.10;99.90;;;;;;5048254;28;20201;-87
2022/11/13 04:52:42;;;;;;;9.13;4.80;;;4.20;99.90;;;;;;5048082;28;20240;-87
2022/11/13 04:55:26;;;;;;;11.23;5.27;;;4.20;99.90;;;;;;5047741;28;20454;-87
2022/11/13 04:58:11;;;;;;;7.33;5.17;;;4.20;99.90;;;;;;5047508;28;20180;-87
2022/11/13 05:00:55;;;;;;;38.83;6.47;;;4.00;99.90;;;;;;5047652;28;20209;-87
2022/11/13 05:03:40;;;;;;;23.07;5.27;;;4.00;99.90;;;;;;5034526;28;20170;-87
2022/11/13 05:06:24;;;;;;;23.20;5.43;;;3.90;99.90;;;;;;5027833;28;20210;-87
2022/11/13 05:09:10;;;;;;;17.20;5.93;;;3.90;99.90;;;;;;5031881;28;20246;-87
2022/11/13 05:11:54;;;;;;;10.03;5.43;;;3.90;99.90;;;;;;5033561;28;20174;-87
2022/11/13 05:14:40;;;;;;;10.33;5.50;;;3.90;99.90;;;;;;5033732;28;20201;-87
2022/11/13 05:17:24;;;;;;;11.30;5.70;;;3.90;99.90;;;;;;5033329;28;20240;-88
2022/11/13 05:20:09;;;;;;;22.27;5.97;;;3.90;99.90;;;;;;5033652;28;20195;-87
2022/11/13 05:22:54;;;;;;;25.27;6.53;;;3.80;99.90;;;;;;5033434;28;20170;-87
2022/11/13 05:25:40;;;;;;;13.83;6.83;;;3.80;99.90;;;;;;5033317;28;20701;-87
2022/11/13 05:28:25;;;;;;;10.90;5.27;;;3.90;99.90;;;;;;5033377;28;20261;-87
2022/11/13 05:31:17;;;;;;;9.37;5.53;;;3.90;99.90;;;;;;5033312;28;20205;-87
2022/11/13 05:34:03;;;;;;;5.57;5.07;;;3.90;99.90;;;;;;5032878;28;20229;-88
2022/11/13 05:36:48;;;;;;;5.23;4.73;;;4.00;99.90;;;;;;5047143;28;20730;-88
2022/11/13 05:39:32;;;;;;;23.30;5.87;;;3.90;99.90;;;;;;5046346;28;20209;-87
2022/11/13 05:42:17;;;;;;;19.50;6.03;;;3.90;99.90;;;;;;5047280;28;20173;-88
2022/11/13 05:45:01;;;;;;;33.47;6.93;;;3.90;99.90;;;;;;5047297;28;20236;-87
2022/11/13 05:47:46;;;;;;;36.73;7.87;;;3.90;99.90;;;;;;5033737;28;20225;-87
2022/11/13 05:50:30;;;;;;;9.47;4.60;;;3.90;99.90;;;;;;5046523;28;20204;-88
2022/11/13 05:53:14;;;;;;;21.80;6.17;;;3.90;99.90;;;;;;5046476;28;20182;-87
2022/11/13 05:56:01;;;;;;;19.70;6.30;;;3.90;99.90;;;;;;5032496;28;20178;-87
2022/11/13 05:58:46;;;;;;;30.33;7.63;;;3.90;99.90;;;;;;5032800;28;20174;-88
2022/11/13 06:01:34;;;;;;;9.93;4.97;;;3.90;99.90;;;;;;5032661;28;20166;-87
2022/11/13 06:04:18;;;;;;;5.70;4.83;;;3.90;99.90;;;;;;5032754;28;20209;-87
2022/11/13 06:07:02;;;;;;;17.97;6.23;;;3.80;99.90;;;;;;5046497;28;20170;-88
2022/11/13 06:09:47;;;;;;;31.50;6.93;;;3.80;99.90;;;;;;5046645;28;20229;-87
2022/11/13 06:12:32;;;;;;;12.43;4.97;;;3.70;99.90;;;;;;5046753;28;20213;-88
2022/11/13 06:15:16;;;;;;;10.50;4.60;;;3.70;99.90;;;;;;5046548;28;20213;-87
2022/11/13 06:18:01;;;;;;;7.10;5.30;;;3.60;99.90;;;;;;5046381;28;20181;-87
2022/11/13 06:20:45;;;;;;;8.13;5.23;;;3.50;99.90;;;;;;5033004;28;20220;-87
2022/11/13 06:23:33;;;;;;;4.83;4.37;;;3.60;99.90;;;;;;5033427;28;20232;-87
2022/11/13 06:26:20;;;;;;;4.83;4.33;;;3.60;99.90;;;;;;5034814;28;20169;-87
2022/11/13 06:29:06;;;;;;;5.63;5.13;;;3.50;99.90;;;;;;5033076;28;20224;-87
2022/11/13 06:31:51;;;;;;;17.93;5.40;;;3.50;99.90;;;;;;5031928;28;20636;-87
2022/11/13 06:34:35;;;;;;;8.60;5.50;;;3.50;99.90;;;;;;5032069;28;20202;-87
2022/11/13 06:37:20;;;;;;;18.27;5.53;;;3.50;99.90;;;;;;5031786;28;20170;-87
2022/11/13 06:40:05;;;;;;;65.63;34.43;;;3.50;99.90;;;;;;5032137;28;20245;-87
2022/11/13 06:42:51;;;;;;;35.20;20.03;;;3.50;99.90;;;;;;5031844;28;20177;-87
2022/11/13 06:45:35;;;;;;;7.93;5.87;;;3.50;99.90;;;;;;5031787;28;20240;-87
2022/11/13 06:48:20;;;;;;;6.63;5.10;;;3.60;99.90;;;;;;5032349;28;20190;-87
2022/11/13 06:51:06;;;;;;;5.40;4.57;;;3.50;99.90;;;;;;5031637;28;20236;-87
2022/11/13 06:53:50;;;;;;;8.20;4.60;;;3.50;99.90;;;;;;5031747;28;20697;-87
2022/11/13 06:56:35;;;;;;;11.03;4.83;;;3.50;99.90;;;;;;5031793;28;20170;-87
2022/11/13 06:59:20;;;;;;;12.33;5.00;;;3.50;99.90;;;;;;5028288;28;20229;-87
2022/11/13 07:02:05;;;;;;;6.17;5.20;;;3.50;99.90;;;;;;5032861;28;20255;-87
2022/11/13 07:04:50;;;;;;;10.07;5.10;;;3.40;99.90;;;;;;5031646;28;20233;-87
2022/11/13 07:07:34;;;;;;;27.13;5.83;;;3.50;99.90;;;;;;5026416;28;20210;-87
2022/11/13 07:10:30;;;;;;;7.33;4.87;;;3.40;99.90;;;;;;5017949;28;20182;-88
2022/11/13 07:13:15;;;;;;;19.53;5.30;;;3.40;99.90;;;;;;5032263;28;20228;-87
2022/11/13 07:16:04;;;;;;;5.67;5.00;;;3.30;99.90;;;;;;5032685;28;20170;-87
2022/11/13 07:18:51;;;;;;;4.93;4.37;;;3.30;99.90;;;;;;5031923;28;20183;-87
2022/11/13 07:21:36;;;;;;;7.50;4.63;;;3.30;99.90;;;;;;5031842;28;20205;-87
2022/11/13 07:24:20;;;;;;;6.40;4.47;;;3.30;99.90;;;;;;5030388;28;20214;-87
2022/11/13 07:27:05;;;;;;;10.77;5.30;;;3.30;99.90;;;;;;5011750;28;20179;-88
2022/11/13 07:29:50;;;;;;;11.53;5.53;;;3.30;99.90;;;;;;5011777;28;20181;-87
2022/11/13 07:32:34;;;;;;;6.20;4.40;;;3.30;99.90;;;;;;5012048;28;20242;-87
2022/11/13 07:35:19;;;;;;;5.07;4.57;;;3.30;99.90;;;;;;5031895;28;20213;-88
2022/11/13 07:38:04;;;;;;;20.07;5.53;;;3.30;99.90;;;;;;5033385;28;20270;-88
2022/11/13 07:40:57;;;;;;;33.23;5.70;;;3.40;99.90;;;;;;5025226;28;20222;-88
2022/11/13 07:43:42;;;;;;;14.50;5.03;;;3.30;99.90;;;;;;5023561;28;20178;-88
2022/11/13 07:46:26;;;;;;;14.87;4.57;;;3.30;99.90;;;;;;5031220;28;20170;-88
2022/11/13 07:49:10;;;;;;;11.30;5.23;;;3.20;99.90;;;;;;5031180;28;20166;-88
2022/11/13 07:51:55;;;;;;;6.60;4.40;;;3.30;99.90;;;;;;5031301;28;20217;-88
2022/11/13 07:54:40;;;;;;;17.83;5.37;;;3.30;99.90;;;;;;5031408;28;20267;-88
2022/11/13 07:57:26;;;;;;;16.43;5.47;;;3.30;99.90;;;;;;5012655;28;20187;-87
2022/11/13 08:00:11;;;;;;;17.30;5.00;;;3.30;99.90;;;;;;5020085;28;20286;-88
2022/11/13 08:02:55;;;;;;;9.57;4.77;;;3.30;99.90;;;;;;5032017;28;20172;-88
2022/11/13 08:05:41;;;;;;;5.10;4.60;;;3.20;99.90;;;;;;5034721;28;20237;-88
2022/11/13 08:08:25;;;;;;;9.63;4.80;;;3.20;99.90;;;;;;5029195;28;20198;-88
2022/11/13 08:11:11;;;;;;;13.73;5.40;;;3.30;99.90;;;;;;5014981;28;20173;-88
2022/11/13 08:13:56;;;;;;;5.20;4.40;;;3.30;99.90;;;;;;5016303;28;20253;-87
2022/11/13 08:16:41;;;;;;;5.70;4.43;;;3.30;99.90;;;;;;5026985;28;20244;-88
2022/11/13 08:19:25;;;;;;;21.87;5.67;;;3.30;99.90;;;;;;5030086;28;20186;-88
2022/11/13 08:22:10;;;;;;;6.80;4.90;;;3.30;99.90;;;;;;5034556;28;20170;-88
2022/11/13 08:24:54;;;;;;;5.50;4.00;;;3.30;99.90;;;;;;5034427;28;20233;-88
2022/11/13 08:27:39;;;;;;;5.53;4.27;;;3.40;99.90;;;;;;5015172;28;20187;-88
2022/11/13 08:30:33;;;;;;;8.33;4.73;;;3.40;99.90;;;;;;5017828;28;20182;-89
2022/11/13 08:33:18;;;;;;;7.60;4.70;;;3.40;99.90;;;;;;5024176;28;20217;-88
2022/11/13 08:36:03;;;;;;;5.90;4.87;;;3.40;99.90;;;;;;5017928;28;20198;-88
2022/11/13 08:38:47;;;;;;;5.43;4.40;;;3.40;99.90;;;;;;5025744;28;20205;-88
2022/11/13 08:42:16;;;;;;;6.97;4.50;;;3.50;99.90;;;;;;5034979;28;20201;-89
2022/11/13 08:45:00;;;;;;;6.77;4.87;;;3.60;99.90;;;;;;5034719;28;20209;-88
2022/11/13 08:47:45;;;;;;;8.50;5.03;;;3.70;99.90;;;;;;5034600;28;20174;-87
2022/11/13 08:50:30;;;;;;;11.37;5.20;;;3.60;99.90;;;;;;5034544;28;20182;-88
2022/11/13 08:53:15;;;;;;;5.57;4.97;;;3.70;99.90;;;;;;5030584;28;20197;-88
2022/11/13 08:56:01;;;;;;;7.90;5.30;;;3.80;99.90;;;;;;5014873;28;20230;-88
2022/11/13 08:58:45;;;;;;;5.07;4.43;;;4.00;99.90;;;;;;5014706;28;20222;-88
2022/11/13 09:01:30;;;;;;;5.00;4.50;;;4.10;99.90;;;;;;5020105;28;20241;-88
2022/11/13 09:04:14;;;;;;;5.87;4.90;;;4.20;99.90;;;;;;5014437;28;20337;-88
2022/11/13 09:06:59;;;;;;;5.67;5.00;;;4.30;99.90;;;;;;5016843;28;20186;-88
2022/11/13 09:09:46;;;;;;;6.60;4.83;;;4.30;99.90;;;;;;5034467;28;20170;-88
2022/11/13 09:12:37;;;;;;;5.03;4.40;;;4.40;99.90;;;;;;5034407;28;20232;-87
2022/11/13 09:15:22;;;;;;;4.87;4.33;;;4.30;99.90;;;;;;5031607;28;20219;-87
2022/11/13 09:18:07;;;;;;;5.83;4.00;;;4.30;99.90;;;;;;5033961;28;20253;-88
2022/11/13 09:20:53;;;;;;;5.23;4.50;;;4.30;99.90;;;;;;5031321;28;20211;-88
2022/11/13 09:23:38;;;;;;;5.13;4.63;;;4.40;99.90;;;;;;5036630;28;20209;-89
2022/11/13 09:26:24;;;;;;;6.43;4.90;;;4.40;99.90;;;;;;5035732;28;20186;-88
2022/11/13 09:29:09;;;;;;;5.90;4.73;;;4.40;99.90;;;;;;5014597;28;20172;-88
2022/11/13 09:31:55;;;;;;;6.53;5.50;;;4.50;99.90;;;;;;5014476;28;20528;-88
2022/11/13 09:34:40;;;;;;;6.37;5.73;;;4.60;99.90;;;;;;5034030;28;20722;-88
2022/11/13 09:37:25;;;;;;;7.87;6.67;;;4.60;99.90;;;;;;5047772;28;20285;-88
2022/11/13 09:40:23;;;;;;;7.20;5.90;;;4.70;99.90;;;;;;5047473;28;20223;-88
2022/11/13 09:43:26;;;;;;;5.83;5.20;;;4.70;99.90;;;;;;5018626;28;20187;-87
2022/11/13 09:46:26;;;;;;;8.07;6.93;;;4.70;99.90;;;;;;5048996;28;20178;-85
2022/11/13 09:49:14;;;;;;;5.97;5.17;;;4.80;99.90;;;;;;5027740;28;20178;-89
2022/11/13 09:52:04;;;;;;;7.80;6.57;;;4.90;99.90;;;;;;5029430;28;20248;-88
2022/11/13 09:54:55;;;;;;;6.43;5.83;;;4.80;99.90;;;;;;5019806;28;20592;-88
2022/11/13 09:58:00;;;;;;;6.90;6.20;;;4.80;99.90;;;;;;5012804;28;20250;-88
2022/11/13 10:00:45;;;;;;;6.53;5.57;;;4.80;99.90;;;;;;5013235;28;20198;-88
2022/11/13 10:03:54;;;;;;;10.57;7.90;;;4.70;99.90;;;;;;5018212;28;20171;-88
2022/11/13 10:07:02;;;;;;;8.60;6.83;;;4.70;99.90;;;;;;5013024;28;20172;-88
2022/11/13 10:09:58;;;;;;;8.43;6.77;;;4.80;99.90;;;;;;5028612;28;20178;-88
2022/11/13 10:12:50;;;;;;;7.63;6.87;;;4.90;99.90;;;;;;5034203;28;20193;-88
2022/11/13 10:15:40;;;;;;;8.13;7.30;;;4.80;99.90;;;;;;5033147;28;20223;-88
2022/11/13 10:18:32;;;;;;;8.73;6.97;;;4.90;99.90;;;;;;5035334;28;20211;-88
2022/11/13 10:21:57;;;;;;;7.97;7.17;;;4.90;99.90;;;;;;5020987;28;20208;-88
2022/11/13 10:24:49;;;;;;;9.53;8.33;;;5.00;99.90;;;;;;4991841;28;20267;-87
2022/11/13 10:27:38;;;;;;;8.33;7.40;;;5.10;99.90;;;;;;5016627;28;20192;-88
2022/11/13 10:30:45;;;;;;;8.77;7.63;;;5.30;99.90;;;;;;5020580;28;20227;-88
2022/11/13 10:33:50;;;;;;;8.90;8.00;;;5.40;99.90;;;;;;5022902;28;20278;-88
2022/11/13 10:36:38;;;;;;;9.13;7.60;;;5.40;99.90;;;;;;5017618;28;20240;-88
2022/11/13 10:39:23;;;;;;;11.60;8.20;;;5.40;99.90;;;;;;5016517;28;20203;-88
2022/11/13 10:42:28;;;;;;;9.17;8.20;;;5.40;99.90;;;;;;5033279;28;20249;-87
2022/11/13 10:45:15;;;;;;;10.30;9.20;;;5.50;99.90;;;;;;5057456;28;20209;-87
2022/11/13 10:48:00;;;;;;;11.07;9.17;;;5.50;99.90;;;;;;5032066;28;20224;-88
2022/11/13 10:51:03;;;;;;;10.97;9.57;;;5.40;99.90;;;;;;5032091;28;20186;-87
2022/11/13 10:53:48;;;;;;;12.17;9.70;;;5.50;99.90;;;;;;5032086;28;20193;-83
2022/11/13 10:56:34;;;;;;;9.43;8.43;;;5.70;99.90;;;;;;5021529;28;20188;-87
2022/11/13 10:59:19;;;;;;;10.27;8.90;;;5.80;99.90;;;;;;5039387;28;20263;-88
2022/11/13 11:02:20;;;;;;;10.33;9.20;;;6.00;99.90;;;;;;5013326;28;20192;-89
2022/11/13 11:05:17;;;;;;;10.20;9.07;;;6.10;99.90;;;;;;5021174;28;20212;-88
2022/11/13 11:08:08;;;;;;;9.13;8.23;;;6.40;99.90;;;;;;5031550;28;20230;-88
2022/11/13 11:14:27;;;;;;;8.00;7.20;;;6.70;99.90;;;;;;5013269;28;20215;-88
2022/11/13 11:17:15;;;;;;;7.40;6.70;;;7.00;99.90;;;;;;5015779;28;20696;-88
2022/11/13 11:20:39;;;;;;;8.10;6.87;;;7.10;99.90;;;;;;5015489;28;20240;-88
2022/11/13 11:23:36;;;;;;;7.57;6.87;;;7.10;99.90;;;;;;5025597;28;20249;-88
2022/11/13 11:26:29;;;;;;;7.50;6.70;;;7.20;99.90;;;;;;5024630;28;20193;-88
2022/11/13 11:29:26;;;;;;;7.70;6.90;;;7.30;99.90;;;;;;5026547;28;20217;-87
2022/11/13 11:32:30;;;;;;;8.20;7.40;;;7.40;99.90;;;;;;5024127;28;20224;-88
2022/11/13 11:35:23;;;;;;;6.70;6.10;;;7.40;99.90;;;;;;5017694;28;20214;-88
2022/11/13 11:38:14;;;;;;;6.80;6.20;;;7.60;99.90;;;;;;5012957;28;20225;-87
2022/11/13 11:41:09;;;;;;;7.33;6.47;;;7.80;99.90;;;;;;5029462;28;20228;-88
2022/11/13 11:44:21;;;;;;;7.23;6.40;;;8.00;99.90;;;;;;5035687;28;20228;-88
2022/11/13 11:47:14;;;;;;;7.13;6.43;;;8.20;99.90;;;;;;5030069;28;20265;-88
2022/11/13 11:50:00;;;;;;;7.10;6.40;;;8.40;99.90;;;;;;5034961;28;20225;-87
2022/11/13 11:52:52;;;;;;;7.10;6.40;;;8.50;99.90;;;;;;5056302;28;20316;-88
2022/11/13 11:55:52;;;;;;;7.20;6.37;;;8.60;99.90;;;;;;5037935;28;20332;-88
2022/11/13 11:59:00;;;;;;;7.07;6.47;;;8.80;99.90;;;;;;5021682;28;20180;-88
2022/11/13 12:02:27;;;;;;;8.67;7.87;;;9.00;99.90;;;;;;5028727;28;20232;-87
2022/11/13 12:05:30;;;;;;;8.23;7.43;;;9.10;99.90;;;;;;5028953;28;20237;-87
2022/11/13 12:08:32;;;;;;;7.10;6.40;;;9.30;99.90;;;;;;5015211;28;20217;-88
2022/11/13 12:11:26;;;;;;;7.33;6.63;;;9.20;99.90;;;;;;5028058;28;20194;-86
2022/11/13 12:14:19;;;;;;;7.20;6.50;;;9.20;99.90;;;;;;5032691;28;20214;-85
2022/11/13 12:17:07;;;;;;;10.60;7.90;;;9.40;99.90;;;;;;5017614;28;20186;-83
2022/11/13 12:19:57;;;;;;;9.37;8.47;;;9.50;99.90;;;;;;5014960;28;20261;-84
2022/11/13 12:22:55;;;;;;;8.83;8.00;;;9.70;99.90;;;;;;5031247;28;20654;-84
2022/11/13 12:26:05;;;;;;;7.77;6.97;;;9.90;99.90;;;;;;5024963;28;20210;-85
2022/11/13 12:29:20;;;;;;;7.57;6.87;;;10.00;99.90;;;;;;5034304;28;20166;-89
2022/11/13 12:32:08;;;;;;;7.27;6.57;;;10.10;99.90;;;;;;5036268;28;20186;-84
2022/11/13 12:34:57;;;;;;;7.23;6.17;;;10.10;99.90;;;;;;5022186;28;20314;-84
2022/11/13 12:37:52;;;;;;;8.03;6.60;;;10.20;99.90;;;;;;5048156;28;20667;-85
2022/11/13 12:40:44;;;;;;;6.93;6.23;;;10.40;99.90;;;;;;5057554;28;20221;-85
2022/11/13 12:43:29;;;;;;;7.03;6.33;;;10.50;99.90;;;;;;5015050;28;20183;-86
2022/11/13 12:46:14;;;;;;;7.40;6.70;;;10.60;99.90;;;;;;5036328;28;20190;-86
2022/11/13 12:48:59;;;;;;;7.20;6.50;;;10.60;99.90;;;;;;5035554;28;20182;-85
2022/11/13 12:52:03;;;;;;;7.33;6.30;;;10.60;99.90;;;;;;5023336;28;20183;-88
2022/11/13 12:55:27;;;;;;;6.90;6.30;;;10.60;99.90;;;;;;5057108;28;20238;-88
2022/11/13 12:58:31;;;;;;;7.93;7.13;;;10.70;99.90;;;;;;5041592;28;20190;-88
2022/11/13 13:01:18;;;;;;;7.40;6.70;;;10.90;99.90;;;;;;5041746;28;20213;-82
2022/11/13 13:04:29;;;;;;;7.97;7.17;;;11.00;99.90;;;;;;5044531;28;20237;-86
2022/11/13 13:07:26;;;;;;;8.03;7.23;;;11.10;99.90;;;;;;5040755;28;20178;-88
2022/11/13 13:10:40;;;;;;;7.30;6.60;;;11.10;99.90;;;;;;5038921;28;20267;-89
2022/11/13 13:13:45;;;;;;;7.37;6.57;;;11.30;99.90;;;;;;5041057;28;20216;-88
2022/11/13 13:16:29;;;;;;;7.83;7.03;;;11.40;99.90;;;;;;5039323;28;20278;-88
2022/11/13 13:19:25;;;;;;;7.10;6.50;;;11.50;99.90;;;;;;5042571;28;20194;-84
2022/11/13 13:22:23;;;;;;;6.87;6.27;;;11.60;99.90;;;;;;5043107;28;20211;-87
2022/11/13 13:25:31;;;;;;;8.07;7.27;;;11.70;99.90;;;;;;5042551;28;20224;-88
2022/11/13 13:28:20;;;;;;;7.17;6.43;;;11.80;99.90;;;;;;5042780;28;20261;-88
2022/11/13 13:31:20;;;;;;;7.87;7.07;;;11.90;99.90;;;;;;5042255;28;20245;-88
2022/11/13 13:34:26;;;;;;;7.27;6.57;;;12.00;99.90;;;;;;5041690;28;20216;-87
2022/11/13 13:37:23;;;;;;;7.27;6.57;;;12.00;99.90;;;;;;5043421;28;20195;-88
2022/11/13 13:40:47;;;;;;;7.33;6.63;;;12.10;99.90;;;;;;5042907;28;20237;-87
2022/11/13 13:43:56;;;;;;;7.87;7.07;;;12.00;99.90;;;;;;5041827;28;20669;-87
2022/11/13 13:46:41;;;;;;;7.73;6.93;;;12.10;99.90;;;;;;5052573;28;20236;-85
2022/11/13 13:49:27;;;;;;;7.50;6.70;;;12.00;99.90;;;;;;5041923;28;20192;-85
2022/11/13 13:52:14;;;;;;;7.87;7.10;;;12.10;99.90;;;;;;5041468;28;20214;-85
2022/11/13 13:55:01;;;;;;;8.03;7.23;;;12.10;99.90;;;;;;5042105;28;20264;-85
2022/11/13 13:57:46;;;;;;;8.97;7.10;;;12.20;99.90;;;;;;5042979;28;20728;-86
2022/11/13 14:00:31;;;;;;;7.87;6.90;;;12.20;99.90;;;;;;5040192;28;20244;-85
2022/11/13 14:03:20;;;;;;;7.43;6.40;;;12.20;99.90;;;;;;5042020;28;20311;-87
2022/11/13 14:06:22;;;;;;;6.67;5.83;;;12.20;99.90;;;;;;5040448;28;20215;-86
2022/11/13 14:09:15;;;;;;;7.53;6.83;;;12.20;99.90;;;;;;5042534;28;20189;-87
2022/11/13 14:12:02;;;;;;;7.17;6.47;;;12.30;99.90;;;;;;5037009;28;20199;-86
2022/11/13 14:14:47;;;;;;;8.30;7.17;;;12.40;99.90;;;;;;5039288;28;20217;-87
2022/11/13 14:17:33;;;;;;;7.60;6.80;;;12.20;99.90;;;;;;5042207;28;20184;-87
2022/11/13 14:20:18;;;;;;;7.37;6.67;;;12.30;99.90;;;;;;5041673;28;20219;-87
2022/11/13 14:23:03;;;;;;;8.00;6.77;;;12.30;99.90;;;;;;5039945;28;20208;-87
2022/11/13 14:25:48;;;;;;;6.70;6.00;;;12.10;99.90;;;;;;5041342;28;20212;-86
2022/11/13 14:28:49;;;;;;;7.80;7.00;;;12.00;99.90;;;;;;5040724;28;20199;-86
2022/11/13 14:31:35;;;;;;;7.20;6.50;;;11.80;99.90;;;;;;5041351;28;20192;-86
2022/11/13 14:34:22;;;;;;;8.27;7.47;;;11.70;99.90;;;;;;5055121;28;20229;-85
2022/11/13 14:37:21;;;;;;;7.83;7.03;;;11.60;99.90;;;;;;5041629;28;20277;-86
2022/11/13 14:40:22;;;;;;;7.30;6.60;;;11.30;99.90;;;;;;5040130;28;20202;-86
2022/11/13 14:43:14;;;;;;;8.23;7.10;;;11.30;99.90;;;;;;5038960;28;20665;-87
2022/11/13 14:46:05;;;;;;;7.43;6.50;;;11.20;99.90;;;;;;5040690;28;20267;-86
2022/11/13 14:48:54;;;;;;;7.40;6.70;;;11.10;99.90;;;;;;5041641;28;20185;-87
2022/11/13 14:51:42;;;;;;;8.17;7.37;;;11.00;99.90;;;;;;5040763;28;20230;-87
2022/11/13 14:54:35;;;;;;;8.43;7.30;;;11.00;99.90;;;;;;5041262;28;20219;-87